sensor_id;sensor_type;location;lat;lon;timestamp;temperature;humidity
11140;DHT22;5624;49.388;11.350;2023-06-04T00:00:05;12.60;40.90
11140;DHT22;5624;49.388;11.350;2023-06-04T00:02:32;12.50;41.10
11140;DHT22;5624;49.388;11.350;2023-06-04T00:04:57;12.50;40.80
11140;DHT22;5624;49.388;11.350;2023-06-04T00:07:23;12.50;41.40
11140;DHT22;5624;49.388;11.350;2023-06-04T00:09:48;12.40;41.30
11140;DHT22;5624;49.388;11.350;2023-06-04T00:12:14;12.40;41.50
11140;DHT22;5624;49.388;11.350;2023-06-04T00:14:40;12.40;41.60
11140;DHT22;5624;49.388;11.350;2023-06-04T00:17:07;12.40;41.50
11140;DHT22;5624;49.388;11.350;2023-06-04T00:19:33;12.30;41.90
11140;DHT22;5624;49.388;11.350;2023-06-04T00:21:59;12.30;41.90
11140;DHT22;5624;49.388;11.350;2023-06-04T00:24:25;12.20;42.00
11140;DHT22;5624;49.388;11.350;2023-06-04T00:26:50;12.30;42.50
11140;DHT22;5624;49.388;11.350;2023-06-04T00:29:16;12.20;42.20
11140;DHT22;5624;49.388;11.350;2023-06-04T00:31:41;12.10;42.40
11140;DHT22;5624;49.388;11.350;2023-06-04T00:34:07;12.00;42.40
11140;DHT22;5624;49.388;11.350;2023-06-04T00:36:32;12.00;42.90
11140;DHT22;5624;49.388;11.350;2023-06-04T00:38:58;12.00;42.50
11140;DHT22;5624;49.388;11.350;2023-06-04T00:41:24;12.00;42.70
11140;DHT22;5624;49.388;11.350;2023-06-04T00:43:50;11.90;43.00
11140;DHT22;5624;49.388;11.350;2023-06-04T00:46:25;11.90;43.70
11140;DHT22;5624;49.388;11.350;2023-06-04T00:48:52;11.90;43.40
11140;DHT22;5624;49.388;11.350;2023-06-04T00:51:19;11.90;43.40
11140;DHT22;5624;49.388;11.350;2023-06-04T00:53:45;11.80;43.80
11140;DHT22;5624;49.388;11.350;2023-06-04T00:56:12;11.80;43.20
11140;DHT22;5624;49.388;11.350;2023-06-04T00:58:38;11.80;43.10
11140;DHT22;5624;49.388;11.350;2023-06-04T01:01:06;11.80;43.40
11140;DHT22;5624;49.388;11.350;2023-06-04T01:03:33;11.80;43.00
11140;DHT22;5624;49.388;11.350;2023-06-04T01:06:13;11.80;43.50
11140;DHT22;5624;49.388;11.350;2023-06-04T01:08:48;11.70;43.60
11140;DHT22;5624;49.388;11.350;2023-06-04T01:11:14;11.70;43.80
11140;DHT22;5624;49.388;11.350;2023-06-04T01:13:40;11.70;43.70
11140;DHT22;5624;49.388;11.350;2023-06-04T01:16:06;11.60;43.70
11140;DHT22;5624;49.388;11.350;2023-06-04T01:18:34;11.60;44.60
11140;DHT22;5624;49.388;11.350;2023-06-04T01:21:04;11.60;44.10
11140;DHT22;5624;49.388;11.350;2023-06-04T01:23:40;11.50;44.50
11140;DHT22;5624;49.388;11.350;2023-06-04T01:26:11;11.40;45.20
11140;DHT22;5624;49.388;11.350;2023-06-04T01:28:37;11.30;45.20
11140;DHT22;5624;49.388;11.350;2023-06-04T01:31:04;11.40;44.50
11140;DHT22;5624;49.388;11.350;2023-06-04T01:33:33;11.40;44.70
11140;DHT22;5624;49.388;11.350;2023-06-04T01:35:58;11.40;44.90
11140;DHT22;5624;49.388;11.350;2023-06-04T01:38:25;11.50;44.60
11140;DHT22;5624;49.388;11.350;2023-06-04T01:40:51;11.50;44.50
11140;DHT22;5624;49.388;11.350;2023-06-04T01:43:21;11.50;45.10
11140;DHT22;5624;49.388;11.350;2023-06-04T01:45:47;11.50;44.60
11140;DHT22;5624;49.388;11.350;2023-06-04T01:48:13;11.40;44.70
11140;DHT22;5624;49.388;11.350;2023-06-04T01:50:39;11.40;45.00
11140;DHT22;5624;49.388;11.350;2023-06-04T01:53:05;11.30;45.60
11140;DHT22;5624;49.388;11.350;2023-06-04T01:55:31;11.30;45.10
11140;DHT22;5624;49.388;11.350;2023-06-04T01:57:59;11.30;45.10
11140;DHT22;5624;49.388;11.350;2023-06-04T02:00:25;11.30;45.60
11140;DHT22;5624;49.388;11.350;2023-06-04T02:02:51;11.20;45.50
11140;DHT22;5624;49.388;11.350;2023-06-04T02:05:18;11.20;45.80
11140;DHT22;5624;49.388;11.350;2023-06-04T02:07:45;11.10;46.00
11140;DHT22;5624;49.388;11.350;2023-06-04T02:10:12;11.00;46.50
11140;DHT22;5624;49.388;11.350;2023-06-04T02:12:40;11.00;46.40
11140;DHT22;5624;49.388;11.350;2023-06-04T02:15:07;10.90;46.90
11140;DHT22;5624;49.388;11.350;2023-06-04T02:17:33;10.80;47.30
11140;DHT22;5624;49.388;11.350;2023-06-04T02:20:03;10.80;47.20
11140;DHT22;5624;49.388;11.350;2023-06-04T02:22:29;10.80;47.10
11140;DHT22;5624;49.388;11.350;2023-06-04T02:24:54;10.70;47.40
11140;DHT22;5624;49.388;11.350;2023-06-04T02:27:20;10.70;48.50
11140;DHT22;5624;49.388;11.350;2023-06-04T02:29:45;10.70;47.50
11140;DHT22;5624;49.388;11.350;2023-06-04T02:32:11;10.80;47.40
11140;DHT22;5624;49.388;11.350;2023-06-04T02:34:37;10.90;47.00
11140;DHT22;5624;49.388;11.350;2023-06-04T02:37:03;10.90;47.10
11140;DHT22;5624;49.388;11.350;2023-06-04T02:39:29;10.90;46.90
11140;DHT22;5624;49.388;11.350;2023-06-04T02:41:54;10.90;47.00
11140;DHT22;5624;49.388;11.350;2023-06-04T02:44:20;10.90;47.10
11140;DHT22;5624;49.388;11.350;2023-06-04T02:46:46;10.80;47.50
11140;DHT22;5624;49.388;11.350;2023-06-04T02:49:12;10.90;47.20
11140;DHT22;5624;49.388;11.350;2023-06-04T02:51:42;10.80;47.30
11140;DHT22;5624;49.388;11.350;2023-06-04T02:54:08;10.90;47.30
11140;DHT22;5624;49.388;11.350;2023-06-04T02:56:36;10.90;47.30
11140;DHT22;5624;49.388;11.350;2023-06-04T02:59:01;10.70;48.10
11140;DHT22;5624;49.388;11.350;2023-06-04T03:01:27;10.60;48.70
11140;DHT22;5624;49.388;11.350;2023-06-04T03:03:53;10.50;49.10
11140;DHT22;5624;49.388;11.350;2023-06-04T03:06:20;10.40;48.80
11140;DHT22;5624;49.388;11.350;2023-06-04T03:08:47;10.50;48.50
11140;DHT22;5624;49.388;11.350;2023-06-04T03:11:13;10.50;48.70
11140;DHT22;5624;49.388;11.350;2023-06-04T03:13:39;10.60;48.30
11140;DHT22;5624;49.388;11.350;2023-06-04T03:16:05;10.60;48.40
11140;DHT22;5624;49.388;11.350;2023-06-04T03:18:41;10.50;48.70
11140;DHT22;5624;49.388;11.350;2023-06-04T03:21:07;10.70;48.10
11140;DHT22;5624;49.388;11.350;2023-06-04T03:23:35;10.70;48.00
11140;DHT22;5624;49.388;11.350;2023-06-04T03:26:01;10.70;48.20
11140;DHT22;5624;49.388;11.350;2023-06-04T03:28:27;10.70;48.50
11140;DHT22;5624;49.388;11.350;2023-06-04T03:30:53;10.70;48.70
11140;DHT22;5624;49.388;11.350;2023-06-04T03:33:19;10.60;48.80
11140;DHT22;5624;49.388;11.350;2023-06-04T03:35:44;10.60;48.90
11140;DHT22;5624;49.388;11.350;2023-06-04T03:38:11;10.60;49.30
11140;DHT22;5624;49.388;11.350;2023-06-04T03:40:36;10.60;49.60
11140;DHT22;5624;49.388;11.350;2023-06-04T03:43:02;10.50;49.90
11140;DHT22;5624;49.388;11.350;2023-06-04T03:45:30;10.60;49.80
11140;DHT22;5624;49.388;11.350;2023-06-04T03:47:55;10.60;50.00
11140;DHT22;5624;49.388;11.350;2023-06-04T03:50:21;10.60;50.30
11140;DHT22;5624;49.388;11.350;2023-06-04T03:52:48;10.50;50.80
11140;DHT22;5624;49.388;11.350;2023-06-04T03:55:14;10.50;50.70
11140;DHT22;5624;49.388;11.350;2023-06-04T03:57:40;10.60;50.40
11140;DHT22;5624;49.388;11.350;2023-06-04T04:00:07;10.60;50.80
11140;DHT22;5624;49.388;11.350;2023-06-04T04:02:34;10.70;50.40
11140;DHT22;5624;49.388;11.350;2023-06-04T04:04:59;10.60;51.30
11140;DHT22;5624;49.388;11.350;2023-06-04T04:07:25;10.70;50.90
11140;DHT22;5624;49.388;11.350;2023-06-04T04:09:51;10.70;50.80
11140;DHT22;5624;49.388;11.350;2023-06-04T04:12:17;10.80;50.80
11140;DHT22;5624;49.388;11.350;2023-06-04T04:14:43;10.90;50.50
11140;DHT22;5624;49.388;11.350;2023-06-04T04:17:08;11.00;50.40
11140;DHT22;5624;49.388;11.350;2023-06-04T04:19:34;11.10;50.10
11140;DHT22;5624;49.388;11.350;2023-06-04T04:22:00;11.10;50.70
11140;DHT22;5624;49.388;11.350;2023-06-04T04:24:28;11.10;50.40
11140;DHT22;5624;49.388;11.350;2023-06-04T04:26:54;11.20;49.70
11140;DHT22;5624;49.388;11.350;2023-06-04T04:29:21;11.30;50.80
11140;DHT22;5624;49.388;11.350;2023-06-04T04:31:49;11.30;50.20
11140;DHT22;5624;49.388;11.350;2023-06-04T04:34:15;11.60;50.10
11140;DHT22;5624;49.388;11.350;2023-06-04T04:36:40;12.30;48.70
11140;DHT22;5624;49.388;11.350;2023-06-04T04:39:06;13.00;46.70
11140;DHT22;5624;49.388;11.350;2023-06-04T04:41:32;13.60;45.20
11140;DHT22;5624;49.388;11.350;2023-06-04T04:44:03;14.00;44.10
11140;DHT22;5624;49.388;11.350;2023-06-04T04:46:30;14.40;43.40
11140;DHT22;5624;49.388;11.350;2023-06-04T04:48:55;14.50;42.40
11140;DHT22;5624;49.388;11.350;2023-06-04T04:51:21;14.20;42.30
11140;DHT22;5624;49.388;11.350;2023-06-04T04:53:47;14.00;44.10
11140;DHT22;5624;49.388;11.350;2023-06-04T04:56:13;13.90;44.20
11140;DHT22;5624;49.388;11.350;2023-06-04T04:58:39;13.80;44.20
11140;DHT22;5624;49.388;11.350;2023-06-04T05:01:04;13.70;45.90
11140;DHT22;5624;49.388;11.350;2023-06-04T05:03:30;13.90;44.20
11140;DHT22;5624;49.388;11.350;2023-06-04T05:05:56;14.10;44.30
11140;DHT22;5624;49.388;11.350;2023-06-04T05:08:21;14.00;44.50
11140;DHT22;5624;49.388;11.350;2023-06-04T05:10:47;14.10;44.30
11140;DHT22;5624;49.388;11.350;2023-06-04T05:13:12;14.50;44.30
11140;DHT22;5624;49.388;11.350;2023-06-04T05:15:38;14.90;44.10
11140;DHT22;5624;49.388;11.350;2023-06-04T05:18:05;15.40;42.20
11140;DHT22;5624;49.388;11.350;2023-06-04T05:20:31;15.20;42.90
11140;DHT22;5624;49.388;11.350;2023-06-04T05:22:56;15.20;44.10
11140;DHT22;5624;49.388;11.350;2023-06-04T05:25:22;15.10;42.70
11140;DHT22;5624;49.388;11.350;2023-06-04T05:27:47;14.90;44.20
11140;DHT22;5624;49.388;11.350;2023-06-04T05:30:14;14.90;43.70
11140;DHT22;5624;49.388;11.350;2023-06-04T05:32:40;14.70;44.40
11140;DHT22;5624;49.388;11.350;2023-06-04T05:35:06;14.80;44.00
11140;DHT22;5624;49.388;11.350;2023-06-04T05:37:33;14.80;44.50
11140;DHT22;5624;49.388;11.350;2023-06-04T05:40:03;15.00;43.90
11140;DHT22;5624;49.388;11.350;2023-06-04T05:42:30;15.00;43.60
11140;DHT22;5624;49.388;11.350;2023-06-04T05:44:56;14.90;44.30
11140;DHT22;5624;49.388;11.350;2023-06-04T05:47:21;15.00;44.00
11140;DHT22;5624;49.388;11.350;2023-06-04T05:49:47;15.20;44.60
11140;DHT22;5624;49.388;11.350;2023-06-04T05:52:13;15.40;43.50
11140;DHT22;5624;49.388;11.350;2023-06-04T05:54:38;15.40;44.00
11140;DHT22;5624;49.388;11.350;2023-06-04T05:57:04;15.40;44.90
11140;DHT22;5624;49.388;11.350;2023-06-04T05:59:31;15.70;42.60
11140;DHT22;5624;49.388;11.350;2023-06-04T06:01:57;15.50;43.40
11140;DHT22;5624;49.388;11.350;2023-06-04T06:04:22;15.90;42.80
11140;DHT22;5624;49.388;11.350;2023-06-04T06:06:48;16.40;41.80
11140;DHT22;5624;49.388;11.350;2023-06-04T06:09:14;17.00;41.20
11140;DHT22;5624;49.388;11.350;2023-06-04T06:11:41;17.80;38.80
11140;DHT22;5624;49.388;11.350;2023-06-04T06:14:06;18.30;38.10
11140;DHT22;5624;49.388;11.350;2023-06-04T06:16:32;19.10;37.40
11140;DHT22;5624;49.388;11.350;2023-06-04T06:18:58;19.90;36.00
11140;DHT22;5624;49.388;11.350;2023-06-04T06:21:24;20.20;34.70
11140;DHT22;5624;49.388;11.350;2023-06-04T06:23:51;21.50;32.20
11140;DHT22;5624;49.388;11.350;2023-06-04T06:26:16;22.30;31.90
11140;DHT22;5624;49.388;11.350;2023-06-04T06:28:42;23.20;30.20
11140;DHT22;5624;49.388;11.350;2023-06-04T06:31:08;23.90;29.80
11140;DHT22;5624;49.388;11.350;2023-06-04T06:33:33;24.70;28.30
11140;DHT22;5624;49.388;11.350;2023-06-04T06:35:59;25.60;29.00
11140;DHT22;5624;49.388;11.350;2023-06-04T06:38:27;26.10;26.50
11140;DHT22;5624;49.388;11.350;2023-06-04T06:40:53;26.10;26.30
11140;DHT22;5624;49.388;11.350;2023-06-04T06:43:19;25.90;26.30
11140;DHT22;5624;49.388;11.350;2023-06-04T06:45:45;26.00;26.50
11140;DHT22;5624;49.388;11.350;2023-06-04T06:48:10;25.80;29.00
11140;DHT22;5624;49.388;11.350;2023-06-04T06:50:36;26.40;27.00
11140;DHT22;5624;49.388;11.350;2023-06-04T06:53:02;26.80;25.90
11140;DHT22;5624;49.388;11.350;2023-06-04T06:55:28;26.60;26.60
11140;DHT22;5624;49.388;11.350;2023-06-04T06:57:53;26.60;26.10
11140;DHT22;5624;49.388;11.350;2023-06-04T07:00:19;25.90;27.10
11140;DHT22;5624;49.388;11.350;2023-06-04T07:02:45;26.20;27.90
11140;DHT22;5624;49.388;11.350;2023-06-04T07:05:11;26.70;30.10
11140;DHT22;5624;49.388;11.350;2023-06-04T07:07:37;27.10;26.20
11140;DHT22;5624;49.388;11.350;2023-06-04T07:10:03;27.10;26.60
11140;DHT22;5624;49.388;11.350;2023-06-04T07:12:29;27.20;26.20
11140;DHT22;5624;49.388;11.350;2023-06-04T07:14:55;26.90;25.40
11140;DHT22;5624;49.388;11.350;2023-06-04T07:17:21;26.60;26.40
11140;DHT22;5624;49.388;11.350;2023-06-04T07:19:47;25.90;28.30
11140;DHT22;5624;49.388;11.350;2023-06-04T07:22:13;25.80;28.40
11140;DHT22;5624;49.388;11.350;2023-06-04T07:24:41;25.80;29.80
11140;DHT22;5624;49.388;11.350;2023-06-04T07:27:14;26.30;27.40
11140;DHT22;5624;49.388;11.350;2023-06-04T07:29:40;26.70;29.80
11140;DHT22;5624;49.388;11.350;2023-06-04T07:32:06;27.50;27.10
11140;DHT22;5624;49.388;11.350;2023-06-04T07:34:32;27.80;26.60
11140;DHT22;5624;49.388;11.350;2023-06-04T07:36:57;28.80;27.40
11140;DHT22;5624;49.388;11.350;2023-06-04T07:39:23;29.20;24.90
11140;DHT22;5624;49.388;11.350;2023-06-04T07:41:49;29.00;26.00
11140;DHT22;5624;49.388;11.350;2023-06-04T07:44:14;29.30;23.90
11140;DHT22;5624;49.388;11.350;2023-06-04T07:46:40;29.10;26.90
11140;DHT22;5624;49.388;11.350;2023-06-04T07:49:06;28.90;24.70
11140;DHT22;5624;49.388;11.350;2023-06-04T07:51:31;28.90;23.80
11140;DHT22;5624;49.388;11.350;2023-06-04T07:53:57;27.70;25.50
11140;DHT22;5624;49.388;11.350;2023-06-04T07:56:22;27.00;26.70
11140;DHT22;5624;49.388;11.350;2023-06-04T07:58:48;26.80;27.60
11140;DHT22;5624;49.388;11.350;2023-06-04T08:01:14;27.70;25.60
11140;DHT22;5624;49.388;11.350;2023-06-04T08:03:39;27.80;26.60
11140;DHT22;5624;49.388;11.350;2023-06-04T08:06:07;28.80;26.70
11140;DHT22;5624;49.388;11.350;2023-06-04T08:08:32;29.30;24.90
11140;DHT22;5624;49.388;11.350;2023-06-04T08:10:59;29.70;24.40
11140;DHT22;5624;49.388;11.350;2023-06-04T08:13:25;29.20;23.20
11140;DHT22;5624;49.388;11.350;2023-06-04T08:15:51;28.80;28.50
11140;DHT22;5624;49.388;11.350;2023-06-04T08:18:17;29.20;25.50
11140;DHT22;5624;49.388;11.350;2023-06-04T08:20:42;29.60;25.50
11140;DHT22;5624;49.388;11.350;2023-06-04T08:23:08;29.10;22.80
11140;DHT22;5624;49.388;11.350;2023-06-04T08:25:33;28.60;24.30
11140;DHT22;5624;49.388;11.350;2023-06-04T08:27:59;28.00;23.90
11140;DHT22;5624;49.388;11.350;2023-06-04T08:30:25;28.20;26.30
11140;DHT22;5624;49.388;11.350;2023-06-04T08:32:53;28.60;23.80
11140;DHT22;5624;49.388;11.350;2023-06-04T08:35:18;28.70;24.70
11140;DHT22;5624;49.388;11.350;2023-06-04T08:37:44;29.50;22.80
11140;DHT22;5624;49.388;11.350;2023-06-04T08:40:10;29.80;21.90
11140;DHT22;5624;49.388;11.350;2023-06-04T08:42:44;28.30;22.10
11140;DHT22;5624;49.388;11.350;2023-06-04T08:45:11;27.60;23.80
11140;DHT22;5624;49.388;11.350;2023-06-04T08:47:40;28.00;23.60
11140;DHT22;5624;49.388;11.350;2023-06-04T08:50:10;28.40;23.00
11140;DHT22;5624;49.388;11.350;2023-06-04T08:52:37;28.20;24.20
11140;DHT22;5624;49.388;11.350;2023-06-04T08:55:04;27.90;26.50
11140;DHT22;5624;49.388;11.350;2023-06-04T08:57:32;28.60;25.70
11140;DHT22;5624;49.388;11.350;2023-06-04T08:59:59;28.90;25.30
11140;DHT22;5624;49.388;11.350;2023-06-04T09:02:27;29.40;25.50
11140;DHT22;5624;49.388;11.350;2023-06-04T09:04:53;29.20;24.60
11140;DHT22;5624;49.388;11.350;2023-06-04T09:07:19;29.80;23.50
11140;DHT22;5624;49.388;11.350;2023-06-04T09:09:46;29.20;24.50
11140;DHT22;5624;49.388;11.350;2023-06-04T09:12:23;29.90;27.70
11140;DHT22;5624;49.388;11.350;2023-06-04T09:14:48;30.10;25.10
11140;DHT22;5624;49.388;11.350;2023-06-04T09:17:25;30.50;25.20
11140;DHT22;5624;49.388;11.350;2023-06-04T09:19:51;29.70;22.30
11140;DHT22;5624;49.388;11.350;2023-06-04T09:22:17;28.50;25.40
11140;DHT22;5624;49.388;11.350;2023-06-04T09:24:47;28.60;27.90
11140;DHT22;5624;49.388;11.350;2023-06-04T09:27:20;27.50;25.20
11140;DHT22;5624;49.388;11.350;2023-06-04T09:29:52;26.60;26.30
11140;DHT22;5624;49.388;11.350;2023-06-04T09:32:22;26.20;27.90
11140;DHT22;5624;49.388;11.350;2023-06-04T09:34:48;26.70;27.40
11140;DHT22;5624;49.388;11.350;2023-06-04T09:37:15;27.50;26.20
11140;DHT22;5624;49.388;11.350;2023-06-04T09:39:52;28.00;27.30
11140;DHT22;5624;49.388;11.350;2023-06-04T09:42:19;28.60;27.40
11140;DHT22;5624;49.388;11.350;2023-06-04T09:44:44;29.40;26.90
11140;DHT22;5624;49.388;11.350;2023-06-04T09:47:13;29.80;25.80
11140;DHT22;5624;49.388;11.350;2023-06-04T09:49:42;30.20;23.00
11140;DHT22;5624;49.388;11.350;2023-06-04T09:52:08;29.30;23.50
11140;DHT22;5624;49.388;11.350;2023-06-04T09:54:40;28.40;24.10
11140;DHT22;5624;49.388;11.350;2023-06-04T09:57:17;27.50;25.20
11140;DHT22;5624;49.388;11.350;2023-06-04T09:59:50;26.90;25.80
11140;DHT22;5624;49.388;11.350;2023-06-04T10:02:20;27.20;27.00
11140;DHT22;5624;49.388;11.350;2023-06-04T10:04:49;27.70;27.40
11140;DHT22;5624;49.388;11.350;2023-06-04T10:07:19;28.50;24.90
11140;DHT22;5624;49.388;11.350;2023-06-04T10:09:46;28.90;23.00
11140;DHT22;5624;49.388;11.350;2023-06-04T10:12:16;29.00;22.40
11140;DHT22;5624;49.388;11.350;2023-06-04T10:14:59;28.70;25.30
11140;DHT22;5624;49.388;11.350;2023-06-04T10:17:27;28.70;25.70
11140;DHT22;5624;49.388;11.350;2023-06-04T10:19:54;28.90;26.20
11140;DHT22;5624;49.388;11.350;2023-06-04T10:22:21;29.20;25.30
11140;DHT22;5624;49.388;11.350;2023-06-04T10:24:47;29.00;22.30
11140;DHT22;5624;49.388;11.350;2023-06-04T10:27:13;28.80;23.30
11140;DHT22;5624;49.388;11.350;2023-06-04T10:29:39;28.10;24.50
11140;DHT22;5624;49.388;11.350;2023-06-04T10:32:05;27.20;23.70
11140;DHT22;5624;49.388;11.350;2023-06-04T10:34:31;27.20;26.10
11140;DHT22;5624;49.388;11.350;2023-06-04T10:36:58;27.20;23.60
11140;DHT22;5624;49.388;11.350;2023-06-04T10:39:31;27.70;24.50
11140;DHT22;5624;49.388;11.350;2023-06-04T10:42:05;27.90;23.10
11140;DHT22;5624;49.388;11.350;2023-06-04T10:44:31;27.20;24.50
11140;DHT22;5624;49.388;11.350;2023-06-04T10:46:58;27.00;25.40
11140;DHT22;5624;49.388;11.350;2023-06-04T10:49:28;27.80;26.40
11140;DHT22;5624;49.388;11.350;2023-06-04T10:51:54;28.10;23.40
11140;DHT22;5624;49.388;11.350;2023-06-04T10:54:28;27.70;25.20
11140;DHT22;5624;49.388;11.350;2023-06-04T10:56:54;28.00;24.60
11140;DHT22;5624;49.388;11.350;2023-06-04T10:59:21;26.30;24.90
11140;DHT22;5624;49.388;11.350;2023-06-04T11:01:48;26.70;25.90
11140;DHT22;5624;49.388;11.350;2023-06-04T11:04:24;26.70;26.80
11140;DHT22;5624;49.388;11.350;2023-06-04T11:07:07;26.60;24.40
11140;DHT22;5624;49.388;11.350;2023-06-04T11:09:37;26.30;25.60
11140;DHT22;5624;49.388;11.350;2023-06-04T11:12:12;26.60;28.30
11140;DHT22;5624;49.388;11.350;2023-06-04T11:14:37;26.70;24.00
11140;DHT22;5624;49.388;11.350;2023-06-04T11:17:10;26.40;24.20
11140;DHT22;5624;49.388;11.350;2023-06-04T11:19:37;26.20;25.70
11140;DHT22;5624;49.388;11.350;2023-06-04T11:22:03;26.40;27.50
11140;DHT22;5624;49.388;11.350;2023-06-04T11:24:29;26.40;24.50
11140;DHT22;5624;49.388;11.350;2023-06-04T11:26:57;26.00;24.60
11140;DHT22;5624;49.388;11.350;2023-06-04T11:29:25;26.50;26.20
11140;DHT22;5624;49.388;11.350;2023-06-04T11:31:50;26.60;25.90
11140;DHT22;5624;49.388;11.350;2023-06-04T11:34:30;27.20;27.30
11140;DHT22;5624;49.388;11.350;2023-06-04T11:37:08;27.70;26.20
11140;DHT22;5624;49.388;11.350;2023-06-04T11:39:35;28.10;22.80
11140;DHT22;5624;49.388;11.350;2023-06-04T11:42:04;28.00;24.10
11140;DHT22;5624;49.388;11.350;2023-06-04T11:44:30;27.70;26.00
11140;DHT22;5624;49.388;11.350;2023-06-04T11:46:56;27.80;22.40
11140;DHT22;5624;49.388;11.350;2023-06-04T11:49:22;27.70;24.40
11140;DHT22;5624;49.388;11.350;2023-06-04T11:51:48;26.80;25.70
11140;DHT22;5624;49.388;11.350;2023-06-04T11:54:18;26.50;24.60
11140;DHT22;5624;49.388;11.350;2023-06-04T11:56:45;26.40;23.30
11140;DHT22;5624;49.388;11.350;2023-06-04T11:59:14;25.80;24.40
11140;DHT22;5624;49.388;11.350;2023-06-04T12:01:44;25.60;23.90
11140;DHT22;5624;49.388;11.350;2023-06-04T12:04:17;25.50;26.00
11140;DHT22;5624;49.388;11.350;2023-06-04T12:06:53;26.00;25.70
11140;DHT22;5624;49.388;11.350;2023-06-04T12:09:23;26.30;27.20
11140;DHT22;5624;49.388;11.350;2023-06-04T12:11:49;26.70;24.60
11140;DHT22;5624;49.388;11.350;2023-06-04T12:14:18;26.90;25.40
11140;DHT22;5624;49.388;11.350;2023-06-04T12:16:56;27.20;25.40
11140;DHT22;5624;49.388;11.350;2023-06-04T12:19:22;26.80;24.90
11140;DHT22;5624;49.388;11.350;2023-06-04T12:22:05;26.60;25.60
11140;DHT22;5624;49.388;11.350;2023-06-04T12:24:32;26.70;24.10
11140;DHT22;5624;49.388;11.350;2023-06-04T12:27:08;26.60;26.40
11140;DHT22;5624;49.388;11.350;2023-06-04T12:29:35;26.20;24.80
11140;DHT22;5624;49.388;11.350;2023-06-04T12:32:10;26.20;26.10
11140;DHT22;5624;49.388;11.350;2023-06-04T12:34:39;26.20;26.40
11140;DHT22;5624;49.388;11.350;2023-06-04T12:37:06;26.30;25.50
11140;DHT22;5624;49.388;11.350;2023-06-04T12:39:33;26.40;26.10
11140;DHT22;5624;49.388;11.350;2023-06-04T12:41:59;26.40;24.90
11140;DHT22;5624;49.388;11.350;2023-06-04T12:44:25;26.10;25.70
11140;DHT22;5624;49.388;11.350;2023-06-04T12:46:50;25.90;25.70
11140;DHT22;5624;49.388;11.350;2023-06-04T12:49:16;25.50;25.60
11140;DHT22;5624;49.388;11.350;2023-06-04T12:51:42;24.90;27.10
11140;DHT22;5624;49.388;11.350;2023-06-04T12:54:07;24.30;27.10
11140;DHT22;5624;49.388;11.350;2023-06-04T12:56:33;24.60;26.60
11140;DHT22;5624;49.388;11.350;2023-06-04T12:58:59;24.50;26.40
11140;DHT22;5624;49.388;11.350;2023-06-04T13:01:24;24.30;26.40
11140;DHT22;5624;49.388;11.350;2023-06-04T13:03:50;24.30;27.00
11140;DHT22;5624;49.388;11.350;2023-06-04T13:06:16;24.20;28.20
11140;DHT22;5624;49.388;11.350;2023-06-04T13:08:42;24.20;28.40
11140;DHT22;5624;49.388;11.350;2023-06-04T13:11:08;24.00;28.00
11140;DHT22;5624;49.388;11.350;2023-06-04T13:13:35;24.00;28.50
11140;DHT22;5624;49.388;11.350;2023-06-04T13:16:02;24.00;27.60
11140;DHT22;5624;49.388;11.350;2023-06-04T13:18:27;24.20;27.70
11140;DHT22;5624;49.388;11.350;2023-06-04T13:20:53;24.30;27.10
11140;DHT22;5624;49.388;11.350;2023-06-04T13:23:19;24.20;27.60
11140;DHT22;5624;49.388;11.350;2023-06-04T13:25:44;24.30;29.40
11140;DHT22;5624;49.388;11.350;2023-06-04T13:28:10;24.50;27.50
11140;DHT22;5624;49.388;11.350;2023-06-04T13:30:36;24.70;27.10
11140;DHT22;5624;49.388;11.350;2023-06-04T13:33:03;24.70;27.30
11140;DHT22;5624;49.388;11.350;2023-06-04T13:35:29;24.60;25.90
11140;DHT22;5624;49.388;11.350;2023-06-04T13:37:55;24.30;26.90
11140;DHT22;5624;49.388;11.350;2023-06-04T13:40:20;24.00;27.50
11140;DHT22;5624;49.388;11.350;2023-06-04T13:42:46;23.80;27.90
11140;DHT22;5624;49.388;11.350;2023-06-04T13:45:12;23.90;26.70
11140;DHT22;5624;49.388;11.350;2023-06-04T13:47:37;23.70;27.10
11140;DHT22;5624;49.388;11.350;2023-06-04T13:50:03;23.80;27.70
11140;DHT22;5624;49.388;11.350;2023-06-04T13:52:29;23.60;27.00
11140;DHT22;5624;49.388;11.350;2023-06-04T13:54:55;23.40;28.30
11140;DHT22;5624;49.388;11.350;2023-06-04T13:57:22;23.50;28.90
11140;DHT22;5624;49.388;11.350;2023-06-04T13:59:49;23.60;27.80
11140;DHT22;5624;49.388;11.350;2023-06-04T14:02:14;23.80;27.80
11140;DHT22;5624;49.388;11.350;2023-06-04T14:04:40;23.70;28.10
11140;DHT22;5624;49.388;11.350;2023-06-04T14:07:06;23.50;27.80
11140;DHT22;5624;49.388;11.350;2023-06-04T14:09:32;23.50;28.50
11140;DHT22;5624;49.388;11.350;2023-06-04T14:11:58;23.30;28.60
11140;DHT22;5624;49.388;11.350;2023-06-04T14:14:23;23.20;28.90
11140;DHT22;5624;49.388;11.350;2023-06-04T14:16:49;23.10;29.00
11140;DHT22;5624;49.388;11.350;2023-06-04T14:19:15;23.10;29.30
11140;DHT22;5624;49.388;11.350;2023-06-04T14:21:43;23.30;28.20
11140;DHT22;5624;49.388;11.350;2023-06-04T14:24:10;23.10;29.70
11140;DHT22;5624;49.388;11.350;2023-06-04T14:26:36;23.00;29.10
11140;DHT22;5624;49.388;11.350;2023-06-04T14:29:02;23.10;29.80
11140;DHT22;5624;49.388;11.350;2023-06-04T14:31:28;23.10;29.70
11140;DHT22;5624;49.388;11.350;2023-06-04T14:33:53;23.10;29.30
11140;DHT22;5624;49.388;11.350;2023-06-04T14:36:19;23.20;30.30
11140;DHT22;5624;49.388;11.350;2023-06-04T14:38:45;23.20;28.60
11140;DHT22;5624;49.388;11.350;2023-06-04T14:41:11;23.10;28.80
11140;DHT22;5624;49.388;11.350;2023-06-04T14:43:37;23.20;29.60
11140;DHT22;5624;49.388;11.350;2023-06-04T14:46:02;23.20;29.20
11140;DHT22;5624;49.388;11.350;2023-06-04T14:48:28;23.20;28.80
11140;DHT22;5624;49.388;11.350;2023-06-04T14:50:54;23.30;28.90
11140;DHT22;5624;49.388;11.350;2023-06-04T14:53:21;23.30;28.90
11140;DHT22;5624;49.388;11.350;2023-06-04T14:55:47;23.40;27.80
11140;DHT22;5624;49.388;11.350;2023-06-04T14:58:12;23.30;29.50
11140;DHT22;5624;49.388;11.350;2023-06-04T15:00:38;23.50;28.70
11140;DHT22;5624;49.388;11.350;2023-06-04T15:03:04;23.30;28.30
11140;DHT22;5624;49.388;11.350;2023-06-04T15:05:33;23.20;28.70
11140;DHT22;5624;49.388;11.350;2023-06-04T15:07:58;23.10;28.60
11140;DHT22;5624;49.388;11.350;2023-06-04T15:10:25;22.90;28.60
11140;DHT22;5624;49.388;11.350;2023-06-04T15:12:52;22.90;28.60
11140;DHT22;5624;49.388;11.350;2023-06-04T15:15:19;23.00;28.50
11140;DHT22;5624;49.388;11.350;2023-06-04T15:17:44;23.10;28.80
11140;DHT22;5624;49.388;11.350;2023-06-04T15:20:10;23.10;27.90
11140;DHT22;5624;49.388;11.350;2023-06-04T15:22:36;23.00;28.00
11140;DHT22;5624;49.388;11.350;2023-06-04T15:25:01;23.00;28.50
11140;DHT22;5624;49.388;11.350;2023-06-04T15:27:27;22.90;28.20